Wind From: 11-12-2017 06:00 Until: 12-12-2017 06:00 warning for: Wind Level: Orange info button

Power and phone distribution networks may be disrupted for relatively long periods., Roofs and chimneys can be damaged. , Tree branches may break. , Vehicles can be deported. , Traffic may be disrupted, particularly on secondary roads in forest areas. Limit your trips. , Limit your speed in highway driving, especially if you drive a vehicle or hitch sensitive to wind. , Do not go for walks in forests or along the coast., In town, be vigilant against possible falling objects., Do not work on roofs and do not touch any electrical line fallen on the ground., Store or secure sensitive objects to wind or likely to be damaged., Always install power generators outside buildings. 


Meteo18 Weather Cam more information Meteo18 Weather Cam


Thunder radar more information blitzortung!


Rain radar more information rain snow radar


Visit our other weather sites:

Template documentation
and downloads

And another site



Weather Underground History page Text

Daily Summary for August 26, 2017 Units:  Both    English   Metric
« Previous Day
Next Day »
Daily Weekly Monthly Yearly Custom
  High: Low: Average:
Temperature: 89.1 °F /  31.7 °C 61.9 °F /  16.6 °C 75.6 °F /  24.2 °C
Dew Point: 68.9 °F /  20.5 °C 60.1 °F /  15.6 °C 64.8 °F /  18.2 °C
Humidity: 95 % 44 % 72 %
Wind Speed: 6 mph /  9.7 km/h - 1.2 mph /  1.9 km/h
Wind Gust: 9 mph /  14.5 km/h - -
Wind:- - SSE
Pressure: 30.1 in /  1017.5 hPa 30 in /  1014.8 hPa -
Precipitation: 0 in /  0.0 mm    
Historical Graphs
 
 
Tabular Data for August 26, 2017
Time Temperature Dew Point Pressure Wind Wind Speed Wind Gust Humidity Rainfall Rate (Hourly)
00:02 67.8 °F /  19.9 °C 64.2 °F /  17.9 °C 30 in /  1017.2 hPa Calm     88 % 0 in /  0.0 mm
00:12 67.6 °F /  19.8 °C 64.2 °F /  17.9 °C 30 in /  1017.2 hPa Calm     89 % 0 in /  0.0 mm
00:17 67.5 °F /  19.7 °C 64 °F /  17.8 °C 30 in /  1017.2 hPa Calm     89 % 0 in /  0.0 mm
00:22 67.3 °F /  19.6 °C 63.9 °F /  17.7 °C 30 in /  1017.2 hPa Calm     89 % 0 in /  0.0 mm
00:32 66.9 °F /  19.4 °C 63.5 °F /  17.5 °C 30 in /  1017.2 hPa Calm     89 % 0 in /  0.0 mm
00:42 66.9 °F /  19.4 °C 63.9 °F /  17.7 °C 30 in /  1017.2 hPa Calm     90 % 0 in /  0.0 mm
00:47 66.9 °F /  19.4 °C 63.5 °F /  17.5 °C 30 in /  1017.2 hPa Calm     89 % 0 in /  0.0 mm
00:52 67.1 °F /  19.5 °C 64 °F /  17.8 °C 30 in /  1016.8 hPa Calm     90 % 0 in /  0.0 mm
01:02 66.9 °F /  19.4 °C 63.5 °F /  17.5 °C 30 in /  1016.8 hPa Calm     89 % 0 in /  0.0 mm
01:12 67.1 °F /  19.5 °C 63.7 °F /  17.6 °C 30 in /  1016.8 hPa Calm     89 % 0 in /  0.0 mm
01:17 66.7 °F /  19.3 °C 63.3 °F /  17.4 °C 30 in /  1017.2 hPa Calm     89 % 0 in /  0.0 mm
01:22 66.6 °F /  19.2 °C 63.1 °F /  17.3 °C 30 in /  1017.2 hPa Calm     89 % 0 in /  0.0 mm
01:27 66.4 °F /  19.1 °C 63.3 °F /  17.4 °C 30 in /  1017.2 hPa Calm     90 % 0 in /  0.0 mm
01:32 66 °F /  18.9 °C 63.3 °F /  17.4 °C 30 in /  1017.2 hPa Calm     91 % 0 in /  0.0 mm
01:37 65.8 °F /  18.8 °C 63.1 °F /  17.3 °C 30 in /  1017.2 hPa Calm     91 % 0 in /  0.0 mm
01:42 65.7 °F /  18.7 °C 63 °F /  17.2 °C 30 in /  1017.2 hPa Calm     91 % 0 in /  0.0 mm
01:52 65.8 °F /  18.8 °C 63.5 °F /  17.5 °C 30 in /  1017.2 hPa Calm     92 % 0 in /  0.0 mm
01:57 65.8 °F /  18.8 °C 63.1 °F /  17.3 °C 30 in /  1017.2 hPa Calm     91 % 0 in /  0.0 mm
02:02 66 °F /  18.9 °C 63.3 °F /  17.4 °C 30 in /  1017.2 hPa Calm     91 % 0 in /  0.0 mm
02:12 65.8 °F /  18.8 °C 62.8 °F /  17.1 °C 30 in /  1017.2 hPa Calm     90 % 0 in /  0.0 mm
02:17 65.8 °F /  18.8 °C 62.8 °F /  17.1 °C 30 in /  1017.2 hPa Calm     90 % 0 in /  0.0 mm
02:22 65.8 °F /  18.8 °C 62.8 °F /  17.1 °C 30 in /  1017.2 hPa Calm     90 % 0 in /  0.0 mm
02:32 65.8 °F /  18.8 °C 62.8 °F /  17.1 °C 30 in /  1017.2 hPa Calm     90 % 0 in /  0.0 mm
02:37 65.7 °F /  18.7 °C 62.2 °F /  16.8 °C 30 in /  1017.2 hPa Calm     89 % 0 in /  0.0 mm
02:42 65.5 °F /  18.6 °C 62.2 °F /  16.8 °C 30 in /  1017.2 hPa Calm     89 % 0 in /  0.0 mm
02:52 64.9 °F /  18.3 °C 61.9 °F /  16.6 °C 30 in /  1017.2 hPa Calm     90 % 0 in /  0.0 mm
02:57 64.8 °F /  18.2 °C 61.7 °F /  16.5 °C 30 in /  1017.2 hPa Calm     90 % 0 in /  0.0 mm
03:02 64.8 °F /  18.2 °C 61.7 °F /  16.5 °C 30 in /  1017.2 hPa Calm     90 % 0 in /  0.0 mm
03:12 65.1 °F /  18.4 °C 62.4 °F /  16.9 °C 30 in /  1017.2 hPa Calm     91 % 0 in /  0.0 mm
03:17 65.3 °F /  18.5 °C 62.6 °F /  17.0 °C 30 in /  1017.2 hPa Calm     91 % 0 in /  0.0 mm
03:22 65.5 °F /  18.6 °C 62.8 °F /  17.1 °C 30 in /  1017.2 hPa Calm     91 % 0 in /  0.0 mm
03:27 65.5 °F /  18.6 °C 62.8 °F /  17.1 °C 30 in /  1017.2 hPa Calm     91 % 0 in /  0.0 mm
03:32 65.7 °F /  18.7 °C 62.6 °F /  17.0 °C 30 in /  1017.2 hPa Calm     90 % 0 in /  0.0 mm
03:37 65.7 °F /  18.7 °C 63 °F /  17.2 °C 30 in /  1017.2 hPa Calm     91 % 0 in /  0.0 mm
03:42 65.8 °F /  18.8 °C 63.1 °F /  17.3 °C 30 in /  1017.2 hPa Calm     91 % 0 in /  0.0 mm
03:52 66 °F /  18.9 °C 63 °F /  17.2 °C 30 in /  1017.2 hPa Calm     90 % 0 in /  0.0 mm
03:57 66 °F /  18.9 °C 63 °F /  17.2 °C 30 in /  1017.2 hPa Calm     90 % 0 in /  0.0 mm
04:02 66.2 °F /  19.0 °C 63.1 °F /  17.3 °C 30 in /  1017.2 hPa Calm     90 % 0 in /  0.0 mm
04:12 66 °F /  18.9 °C 63 °F /  17.2 °C 30 in /  1017.2 hPa Calm     90 % 0 in /  0.0 mm
04:17 66 °F /  18.9 °C 63 °F /  17.2 °C 30 in /  1017.2 hPa Calm     90 % 0 in /  0.0 mm
04:22 65.8 °F /  18.8 °C 62.8 °F /  17.1 °C 30 in /  1017.2 hPa Calm     90 % 0 in /  0.0 mm
04:32 65.5 °F /  18.6 °C 62.4 °F /  16.9 °C 30 in /  1017.2 hPa Calm     90 % 0 in /  0.0 mm
04:37 65.3 °F /  18.5 °C 62.6 °F /  17.0 °C 30 in /  1016.8 hPa Calm     91 % 0 in /  0.0 mm
04:42 65.3 °F /  18.5 °C 62.6 °F /  17.0 °C 30 in /  1016.8 hPa Calm     91 % 0 in /  0.0 mm
04:47 65.1 °F /  18.4 °C 62.4 °F /  16.9 °C 30 in /  1016.8 hPa Calm     91 % 0 in /  0.0 mm
05:02 64.6 °F /  18.1 °C 62.2 °F /  16.8 °C 30 in /  1016.8 hPa Calm     92 % 0 in /  0.0 mm
05:07 64.4 °F /  18.0 °C 62.1 °F /  16.7 °C 30 in /  1016.8 hPa Calm     92 % 0 in /  0.0 mm
05:12 64.2 °F /  17.9 °C 61.9 °F /  16.6 °C 30 in /  1016.5 hPa Calm     92 % 0 in /  0.0 mm
05:27 64.2 °F /  17.9 °C 62.2 °F /  16.8 °C 30 in /  1016.8 hPa Calm     93 % 0 in /  0.0 mm
05:32 64 °F /  17.8 °C 62.1 °F /  16.7 °C 30 in /  1016.8 hPa Calm     93 % 0 in /  0.0 mm
05:42 63.9 °F /  17.7 °C 61.9 °F /  16.6 °C 30 in /  1016.8 hPa Calm     93 % 0 in /  0.0 mm
05:52 63.5 °F /  17.5 °C 61.5 °F /  16.4 °C 30 in /  1016.8 hPa ENE 2 mph /  3.2 km/h   93 % 0 in /  0.0 mm
05:57 63.5 °F /  17.5 °C 61.5 °F /  16.4 °C 30 in /  1016.8 hPa Calm   3 mph /  4.8 km/h 93 % 0 in /  0.0 mm
06:02 63.1 °F /  17.3 °C 61.2 °F /  16.2 °C 30 in /  1016.8 hPa Calm   3 mph /  4.8 km/h 93 % 0 in /  0.0 mm
06:07 63 °F /  17.2 °C 61 °F /  16.1 °C 30 in /  1016.8 hPa Calm   2 mph /  3.2 km/h 93 % 0 in /  0.0 mm
06:12 62.8 °F /  17.1 °C 60.8 °F /  16.0 °C 30 in /  1016.8 hPa Calm   2 mph /  3.2 km/h 93 % 0 in /  0.0 mm
06:22 62.2 °F /  16.8 °C 60.3 °F /  15.7 °C 30 in /  1017.2 hPa Calm   1 mph /  1.6 km/h 93 % 0 in /  0.0 mm
06:32 62.2 °F /  16.8 °C 60.4 °F /  15.8 °C 30 in /  1017.2 hPa Calm     94 % 0 in /  0.0 mm
06:37 62.1 °F /  16.7 °C 60.3 °F /  15.7 °C 30 in /  1017.2 hPa WNW 2 mph /  3.2 km/h   94 % 0 in /  0.0 mm
06:42 61.9 °F /  16.6 °C 60.1 °F /  15.6 °C 30 in /  1017.2 hPa Calm     94 % 0 in /  0.0 mm
06:47 62.2 °F /  16.8 °C 60.8 °F /  16.0 °C 30 in /  1017.2 hPa Calm     95 % 0 in /  0.0 mm
06:52 62.2 °F /  16.8 °C 60.8 °F /  16.0 °C 30 in /  1017.2 hPa Calm   2 mph /  3.2 km/h 95 % 0 in /  0.0 mm
06:57 62.2 °F /  16.8 °C 60.8 °F /  16.0 °C 30 in /  1017.2 hPa Calm   2 mph /  3.2 km/h 95 % 0 in /  0.0 mm
07:02 62.2 °F /  16.8 °C 60.8 °F /  16.0 °C 30 in /  1017.2 hPa Calm   1 mph /  1.6 km/h 95 % 0 in /  0.0 mm
07:07 62.1 °F /  16.7 °C 60.6 °F /  15.9 °C 30.1 in /  1017.5 hPa Calm   1 mph /  1.6 km/h 95 % 0 in /  0.0 mm
07:12 62.1 °F /  16.7 °C 60.6 °F /  15.9 °C 30 in /  1017.2 hPa Calm   1 mph /  1.6 km/h 95 % 0 in /  0.0 mm
07:17 61.9 °F /  16.6 °C 60.4 °F /  15.8 °C 30 in /  1017.2 hPa Calm   1 mph /  1.6 km/h 95 % 0 in /  0.0 mm
07:22 61.9 °F /  16.6 °C 60.4 °F /  15.8 °C 30.1 in /  1017.5 hPa Calm   1 mph /  1.6 km/h 95 % 0 in /  0.0 mm
07:32 61.9 °F /  16.6 °C 60.4 °F /  15.8 °C 30.1 in /  1017.5 hPa Calm   1 mph /  1.6 km/h 95 % 0 in /  0.0 mm
07:42 61.9 °F /  16.6 °C 60.4 °F /  15.8 °C 30.1 in /  1017.5 hPa Calm   1 mph /  1.6 km/h 95 % 0 in /  0.0 mm
07:52 62.2 °F /  16.8 °C 60.8 °F /  16.0 °C 30.1 in /  1017.5 hPa Calm   1 mph /  1.6 km/h 95 % 0 in /  0.0 mm
08:02 63.1 °F /  17.3 °C 61.7 °F /  16.5 °C 30.1 in /  1017.5 hPa Calm     95 % 0 in /  0.0 mm
08:07 63.7 °F /  17.6 °C 62.2 °F /  16.8 °C 30.1 in /  1017.5 hPa Calm   1 mph /  1.6 km/h 95 % 0 in /  0.0 mm
08:12 64 °F /  17.8 °C 62.6 °F /  17.0 °C 30 in /  1017.2 hPa Calm   1 mph /  1.6 km/h 95 % 0 in /  0.0 mm
08:17 64.4 °F /  18.0 °C 63 °F /  17.2 °C 30.1 in /  1017.5 hPa Calm   1 mph /  1.6 km/h 95 % 0 in /  0.0 mm
08:22 64.8 °F /  18.2 °C 63 °F /  17.2 °C 30.1 in /  1017.5 hPa Calm   1 mph /  1.6 km/h 94 % 0 in /  0.0 mm
08:32 65.5 °F /  18.6 °C 63.7 °F /  17.6 °C 30.1 in /  1017.5 hPa Calm   1 mph /  1.6 km/h 94 % 0 in /  0.0 mm
08:37 66 °F /  18.9 °C 64.2 °F /  17.9 °C 30.1 in /  1017.5 hPa Calm     94 % 0 in /  0.0 mm
08:42 66.6 °F /  19.2 °C 64.4 °F /  18.0 °C 30.1 in /  1017.5 hPa Calm     93 % 0 in /  0.0 mm
08:47 67.3 °F /  19.6 °C 65.1 °F /  18.4 °C 30 in /  1017.2 hPa Calm     93 % 0 in /  0.0 mm
08:52 68 °F /  20.0 °C 65.3 °F /  18.5 °C 30 in /  1017.2 hPa Calm     91 % 0 in /  0.0 mm
09:02 69.1 °F /  20.6 °C 65.7 °F /  18.7 °C 30.1 in /  1017.5 hPa Calm     89 % 0 in /  0.0 mm
09:12 69.3 °F /  20.7 °C 65.3 °F /  18.5 °C 30 in /  1017.2 hPa Calm     87 % 0 in /  0.0 mm
09:17 69.4 °F /  20.8 °C 65.5 °F /  18.6 °C 30 in /  1017.2 hPa Calm     87 % 0 in /  0.0 mm
09:22 70.3 °F /  21.3 °C 66.2 °F /  19.0 °C 30 in /  1017.2 hPa Calm     87 % 0 in /  0.0 mm
09:32 71.4 °F /  21.9 °C 66.4 °F /  19.1 °C 30 in /  1017.2 hPa Calm     84 % 0 in /  0.0 mm
09:42 72.7 °F /  22.6 °C 66.6 °F /  19.2 °C 30 in /  1017.2 hPa Calm     81 % 0 in /  0.0 mm
09:47 73.2 °F /  22.9 °C 67.1 °F /  19.5 °C 30 in /  1017.2 hPa Calm     81 % 0 in /  0.0 mm
09:52 73.2 °F /  22.9 °C 66.4 °F /  19.1 °C 30 in /  1017.2 hPa Calm     79 % 0 in /  0.0 mm
09:57 73.8 °F /  23.2 °C 66.9 °F /  19.4 °C 30 in /  1017.2 hPa Calm   2 mph /  3.2 km/h 79 % 0 in /  0.0 mm
10:02 73.9 °F /  23.3 °C 67.1 °F /  19.5 °C 30 in /  1017.2 hPa Calm   2 mph /  3.2 km/h 79 % 0 in /  0.0 mm
10:12 75 °F /  23.9 °C 67.3 °F /  19.6 °C 30.1 in /  1017.5 hPa Calm   4 mph /  6.4 km/h 77 % 0 in /  0.0 mm
10:17 75.6 °F /  24.2 °C 66.7 °F /  19.3 °C 30 in /  1017.2 hPa SE 1 mph /  1.6 km/h 3 mph /  4.8 km/h 74 % 0 in /  0.0 mm
10:22 75.6 °F /  24.2 °C 67.1 °F /  19.5 °C 30 in /  1017.2 hPa Calm   3 mph /  4.8 km/h 75 % 0 in /  0.0 mm
10:32 76.3 °F /  24.6 °C 66.9 °F /  19.4 °C 30 in /  1017.2 hPa Calm   3 mph /  4.8 km/h 73 % 0 in /  0.0 mm
10:37 76.3 °F /  24.6 °C 66.6 °F /  19.2 °C 30 in /  1017.2 hPa WSW 2 mph /  3.2 km/h 2 mph /  3.2 km/h 72 % 0 in /  0.0 mm
10:42 76.3 °F /  24.6 °C 66.9 °F /  19.4 °C 30 in /  1017.2 hPa SW 2 mph /  3.2 km/h 2 mph /  3.2 km/h 73 % 0 in /  0.0 mm
10:47 76.3 °F /  24.6 °C 66.9 °F /  19.4 °C 30 in /  1017.2 hPa SW 2 mph /  3.2 km/h 3 mph /  4.8 km/h 73 % 0 in /  0.0 mm
10:52 76.6 °F /  24.8 °C 67.3 °F /  19.6 °C 30 in /  1017.2 hPa SW 1 mph /  1.6 km/h 3 mph /  4.8 km/h 73 % 0 in /  0.0 mm
11:02 77.4 °F /  25.2 °C 67.6 °F /  19.8 °C 30 in /  1017.2 hPa ESE 1 mph /  1.6 km/h 6 mph /  9.7 km/h 72 % 0 in /  0.0 mm
11:07 78.3 °F /  25.7 °C 68 °F /  20.0 °C 30 in /  1017.2 hPa Calm   3 mph /  4.8 km/h 71 % 0 in /  0.0 mm
11:12 79 °F /  26.1 °C 68.4 °F /  20.2 °C 30 in /  1017.2 hPa SSE 1 mph /  1.6 km/h 3 mph /  4.8 km/h 70 % 0 in /  0.0 mm
11:17 79.2 °F /  26.2 °C 67.3 °F /  19.6 °C 30 in /  1017.2 hPa SSW 4 mph /  6.4 km/h 4 mph /  6.4 km/h 67 % 0 in /  0.0 mm
11:22 79 °F /  26.1 °C 68 °F /  20.0 °C 30 in /  1017.2 hPa ESE 4 mph /  6.4 km/h 4 mph /  6.4 km/h 69 % 0 in /  0.0 mm
11:32 79.9 °F /  26.6 °C 68 °F /  20.0 °C 30 in /  1017.2 hPa SW 4 mph /  6.4 km/h 6 mph /  9.7 km/h 67 % 0 in /  0.0 mm
11:42 80.2 °F /  26.8 °C 67.8 °F /  19.9 °C 30 in /  1017.2 hPa SSW 3 mph /  4.8 km/h 6 mph /  9.7 km/h 66 % 0 in /  0.0 mm
11:47 80.4 °F /  26.9 °C 67.6 °F /  19.8 °C 30 in /  1017.2 hPa ESE 1 mph /  1.6 km/h 5 mph /  8.0 km/h 65 % 0 in /  0.0 mm
11:52 80.6 °F /  27.0 °C 67.3 °F /  19.6 °C 30 in /  1017.2 hPa SSW 4 mph /  6.4 km/h 5 mph /  8.0 km/h 64 % 0 in /  0.0 mm
12:02 80.6 °F /  27.0 °C 67.3 °F /  19.6 °C 30 in /  1017.2 hPa SSE 1 mph /  1.6 km/h 5 mph /  8.0 km/h 64 % 0 in /  0.0 mm
12:12 81.7 °F /  27.6 °C 67.5 °F /  19.7 °C 30 in /  1016.8 hPa Calm   7 mph /  11.3 km/h 62 % 0 in /  0.0 mm
12:17 81.7 °F /  27.6 °C 68.4 °F /  20.2 °C 30 in /  1016.8 hPa SSW 3 mph /  4.8 km/h 5 mph /  8.0 km/h 64 % 0 in /  0.0 mm
12:22 82.2 °F /  27.9 °C 68.9 °F /  20.5 °C 30 in /  1016.8 hPa ENE 1 mph /  1.6 km/h 5 mph /  8.0 km/h 64 % 0 in /  0.0 mm
12:32 82.6 °F /  28.1 °C 68.7 °F /  20.4 °C 30 in /  1016.8 hPa South 5 mph /  8.0 km/h 5 mph /  8.0 km/h 63 % 0 in /  0.0 mm
12:42 82.4 °F /  28.0 °C 67.1 °F /  19.5 °C 30 in /  1016.8 hPa NNW 2 mph /  3.2 km/h 6 mph /  9.7 km/h 60 % 0 in /  0.0 mm
12:47 82.2 °F /  27.9 °C 67.5 °F /  19.7 °C 30 in /  1016.8 hPa ENE 2 mph /  3.2 km/h 6 mph /  9.7 km/h 61 % 0 in /  0.0 mm
12:57 82.8 °F /  28.2 °C 67.5 °F /  19.7 °C 30 in /  1016.8 hPa Calm   7 mph /  11.3 km/h 60 % 0 in /  0.0 mm
13:02 84 °F /  28.9 °C 67.6 °F /  19.8 °C 30 in /  1016.8 hPa East 2 mph /  3.2 km/h 7 mph /  11.3 km/h 58 % 0 in /  0.0 mm
13:12 84.7 °F /  29.3 °C 67.3 °F /  19.6 °C 30 in /  1016.8 hPa SE 3 mph /  4.8 km/h 7 mph /  11.3 km/h 56 % 0 in /  0.0 mm
13:17 84.6 °F /  29.2 °C 67.1 °F /  19.5 °C 30 in /  1016.5 hPa East 2 mph /  3.2 km/h 6 mph /  9.7 km/h 56 % 0 in /  0.0 mm
13:22 84 °F /  28.9 °C 67.1 °F /  19.5 °C 30 in /  1016.5 hPa Calm   6 mph /  9.7 km/h 57 % 0 in /  0.0 mm
13:32 84.9 °F /  29.4 °C 66.4 °F /  19.1 °C 30 in /  1016.5 hPa ENE 3 mph /  4.8 km/h 6 mph /  9.7 km/h 54 % 0 in /  0.0 mm
13:37 84.7 °F /  29.3 °C 67.3 °F /  19.6 °C 30 in /  1016.5 hPa SE 5 mph /  8.0 km/h 6 mph /  9.7 km/h 56 % 0 in /  0.0 mm
13:42 84 °F /  28.9 °C 66.6 °F /  19.2 °C 30 in /  1016.5 hPa ESE 3 mph /  4.8 km/h 6 mph /  9.7 km/h 56 % 0 in /  0.0 mm
13:52 84.6 °F /  29.2 °C 67.1 °F /  19.5 °C 30 in /  1016.5 hPa Calm   6 mph /  9.7 km/h 56 % 0 in /  0.0 mm
13:57 84.7 °F /  29.3 °C 66.7 °F /  19.3 °C 30 in /  1016.5 hPa Calm   6 mph /  9.7 km/h 55 % 0 in /  0.0 mm
14:02 85.1 °F /  29.5 °C 66.6 °F /  19.2 °C 30 in /  1016.5 hPa SE 4 mph /  6.4 km/h 6 mph /  9.7 km/h 54 % 0 in /  0.0 mm
14:12 85.8 °F /  29.9 °C 66.7 °F /  19.3 °C 30 in /  1016.1 hPa ESE 4 mph /  6.4 km/h 4 mph /  6.4 km/h 53 % 0 in /  0.0 mm
14:17 85.6 °F /  29.8 °C 66 °F /  18.9 °C 30 in /  1016.5 hPa SSE 1 mph /  1.6 km/h 5 mph /  8.0 km/h 52 % 0 in /  0.0 mm
14:22 85.5 °F /  29.7 °C 66.4 °F /  19.1 °C 30 in /  1016.1 hPa ESE 1 mph /  1.6 km/h 5 mph /  8.0 km/h 53 % 0 in /  0.0 mm
14:32 85.6 °F /  29.8 °C 66 °F /  18.9 °C 30 in /  1016.1 hPa NW 2 mph /  3.2 km/h 5 mph /  8.0 km/h 52 % 0 in /  0.0 mm
14:42 85.8 °F /  29.9 °C 66.2 °F /  19.0 °C 30 in /  1016.1 hPa North 1 mph /  1.6 km/h 6 mph /  9.7 km/h 52 % 0 in /  0.0 mm
14:47 86.4 °F /  30.2 °C 66 °F /  18.9 °C 30 in /  1016.1 hPa SSW 3 mph /  4.8 km/h 6 mph /  9.7 km/h 51 % 0 in /  0.0 mm
15:02 86.7 °F /  30.4 °C 66.4 °F /  19.1 °C 30 in /  1016.1 hPa South 1 mph /  1.6 km/h 6 mph /  9.7 km/h 51 % 0 in /  0.0 mm
15:12 87.1 °F /  30.6 °C 65.7 °F /  18.7 °C 30 in /  1016.1 hPa South 1 mph /  1.6 km/h 9 mph /  14.5 km/h 49 % 0 in /  0.0 mm
15:17 86.9 °F /  30.5 °C 65.5 °F /  18.6 °C 30 in /  1016.1 hPa WSW 2 mph /  3.2 km/h 5 mph /  8.0 km/h 49 % 0 in /  0.0 mm
15:22 87.3 °F /  30.7 °C 65.8 °F /  18.8 °C 30 in /  1016.1 hPa Calm   5 mph /  8.0 km/h 49 % 0 in /  0.0 mm
15:27 87.4 °F /  30.8 °C 65.8 °F /  18.8 °C 30 in /  1016.1 hPa WSW 4 mph /  6.4 km/h 5 mph /  8.0 km/h 49 % 0 in /  0.0 mm
15:32 87.3 °F /  30.7 °C 65.8 °F /  18.8 °C 30 in /  1016.1 hPa NNW 3 mph /  4.8 km/h 5 mph /  8.0 km/h 49 % 0 in /  0.0 mm
15:37 87.3 °F /  30.7 °C 65.8 °F /  18.8 °C 30 in /  1016.1 hPa SE 1 mph /  1.6 km/h 6 mph /  9.7 km/h 49 % 0 in /  0.0 mm
15:42 87.3 °F /  30.7 °C 65.8 °F /  18.8 °C 30 in /  1015.8 hPa West 3 mph /  4.8 km/h 6 mph /  9.7 km/h 49 % 0 in /  0.0 mm
15:47 86.9 °F /  30.5 °C 64.8 °F /  18.2 °C 30 in /  1015.8 hPa SW 3 mph /  4.8 km/h 7 mph /  11.3 km/h 48 % 0 in /  0.0 mm
15:52 86.7 °F /  30.4 °C 65.3 °F /  18.5 °C 30 in /  1015.8 hPa North 2 mph /  3.2 km/h 7 mph /  11.3 km/h 49 % 0 in /  0.0 mm
15:57 86.7 °F /  30.4 °C 65.3 °F /  18.5 °C 30 in /  1015.8 hPa Calm   7 mph /  11.3 km/h 49 % 0 in /  0.0 mm
16:02 86.7 °F /  30.4 °C 65.3 °F /  18.5 °C 30 in /  1015.8 hPa NNE 2 mph /  3.2 km/h 7 mph /  11.3 km/h 49 % 0 in /  0.0 mm
16:12 86.5 °F /  30.3 °C 64.6 °F /  18.1 °C 30 in /  1015.8 hPa ENE 2 mph /  3.2 km/h 6 mph /  9.7 km/h 48 % 0 in /  0.0 mm
16:17 86.5 °F /  30.3 °C 64.6 °F /  18.1 °C 30 in /  1015.8 hPa NE 2 mph /  3.2 km/h 6 mph /  9.7 km/h 48 % 0 in /  0.0 mm
16:22 87.1 °F /  30.6 °C 64.9 °F /  18.3 °C 30 in /  1015.8 hPa NNE 1 mph /  1.6 km/h 6 mph /  9.7 km/h 48 % 0 in /  0.0 mm
16:32 88.3 °F /  31.3 °C 64.9 °F /  18.3 °C 30 in /  1015.8 hPa SSE 2 mph /  3.2 km/h 5 mph /  8.0 km/h 46 % 0 in /  0.0 mm
16:37 88 °F /  31.1 °C 64.6 °F /  18.1 °C 30 in /  1015.8 hPa SE 1 mph /  1.6 km/h 6 mph /  9.7 km/h 46 % 0 in /  0.0 mm
16:42 88.2 °F /  31.2 °C 64.2 °F /  17.9 °C 30 in /  1015.8 hPa WSW 2 mph /  3.2 km/h 6 mph /  9.7 km/h 45 % 0 in /  0.0 mm
16:47 88.5 °F /  31.4 °C 64.4 °F /  18.0 °C 30 in /  1015.5 hPa SSW 1 mph /  1.6 km/h 6 mph /  9.7 km/h 45 % 0 in /  0.0 mm
16:52 88.5 °F /  31.4 °C 64.4 °F /  18.0 °C 30 in /  1015.5 hPa NNW 3 mph /  4.8 km/h 6 mph /  9.7 km/h 45 % 0 in /  0.0 mm
16:57 88.3 °F /  31.3 °C 64.2 °F /  17.9 °C 30 in /  1015.5 hPa Calm   4 mph /  6.4 km/h 45 % 0 in /  0.0 mm
17:02 88.9 °F /  31.6 °C 64.8 °F /  18.2 °C 30 in /  1015.5 hPa SSW 2 mph /  3.2 km/h 4 mph /  6.4 km/h 45 % 0 in /  0.0 mm
17:12 89.1 °F /  31.7 °C 64.2 °F /  17.9 °C 30 in /  1015.5 hPa Calm   4 mph /  6.4 km/h 44 % 0 in /  0.0 mm
17:17 88.9 °F /  31.6 °C 64.2 °F /  17.9 °C 30 in /  1015.5 hPa Calm   4 mph /  6.4 km/h 44 % 0 in /  0.0 mm
17:22 89.1 °F /  31.7 °C 64.2 °F /  17.9 °C 30 in /  1015.5 hPa ENE 3 mph /  4.8 km/h 4 mph /  6.4 km/h 44 % 0 in /  0.0 mm
17:27 88.2 °F /  31.2 °C 63.5 °F /  17.5 °C 30 in /  1015.5 hPa ESE 1 mph /  1.6 km/h 5 mph /  8.0 km/h 44 % 0 in /  0.0 mm
17:32 88.2 °F /  31.2 °C 64.2 °F /  17.9 °C 30 in /  1015.5 hPa North 1 mph /  1.6 km/h 5 mph /  8.0 km/h 45 % 0 in /  0.0 mm
17:37 88.9 °F /  31.6 °C 64.8 °F /  18.2 °C 30 in /  1015.5 hPa WNW 1 mph /  1.6 km/h 5 mph /  8.0 km/h 45 % 0 in /  0.0 mm
17:42 89.1 °F /  31.7 °C 64.2 °F /  17.9 °C 30 in /  1015.5 hPa NNW 1 mph /  1.6 km/h 5 mph /  8.0 km/h 44 % 0 in /  0.0 mm
17:47 88.5 °F /  31.4 °C 64.4 °F /  18.0 °C 30 in /  1015.5 hPa NNE 3 mph /  4.8 km/h 5 mph /  8.0 km/h 45 % 0 in /  0.0 mm
17:52 88.2 °F /  31.2 °C 64.8 °F /  18.2 °C 30 in /  1015.5 hPa East 4 mph /  6.4 km/h 5 mph /  8.0 km/h 46 % 0 in /  0.0 mm
17:57 88 °F /  31.1 °C 65.3 °F /  18.5 °C 30 in /  1015.5 hPa ENE 4 mph /  6.4 km/h 7 mph /  11.3 km/h 47 % 0 in /  0.0 mm
18:02 87.8 °F /  31.0 °C 65.1 °F /  18.4 °C 30 in /  1015.1 hPa NE 3 mph /  4.8 km/h 7 mph /  11.3 km/h 47 % 0 in /  0.0 mm
18:12 87.6 °F /  30.9 °C 64.2 °F /  17.9 °C 30 in /  1015.1 hPa NE 4 mph /  6.4 km/h 7 mph /  11.3 km/h 46 % 0 in /  0.0 mm
18:17 87.4 °F /  30.8 °C 64.8 °F /  18.2 °C 30 in /  1015.1 hPa ENE 2 mph /  3.2 km/h 6 mph /  9.7 km/h 47 % 0 in /  0.0 mm
18:22 87.4 °F /  30.8 °C 64 °F /  17.8 °C 30 in /  1015.1 hPa NNE 3 mph /  4.8 km/h 6 mph /  9.7 km/h 46 % 0 in /  0.0 mm
18:32 87.3 °F /  30.7 °C 64 °F /  17.8 °C 30 in /  1015.1 hPa ENE 1 mph /  1.6 km/h 6 mph /  9.7 km/h 46 % 0 in /  0.0 mm
18:37 87.3 °F /  30.7 °C 64 °F /  17.8 °C 30 in /  1015.1 hPa NE 6 mph /  9.7 km/h 6 mph /  9.7 km/h 46 % 0 in /  0.0 mm
18:42 87.3 °F /  30.7 °C 64 °F /  17.8 °C 30 in /  1015.1 hPa ENE 2 mph /  3.2 km/h 7 mph /  11.3 km/h 46 % 0 in /  0.0 mm
18:47 87.1 °F /  30.6 °C 63.9 °F /  17.7 °C 30 in /  1015.1 hPa NE 2 mph /  3.2 km/h 7 mph /  11.3 km/h 46 % 0 in /  0.0 mm
18:57 86.7 °F /  30.4 °C 64 °F /  17.8 °C 30 in /  1015.1 hPa Calm   4 mph /  6.4 km/h 47 % 0 in /  0.0 mm
19:02 86.5 °F /  30.3 °C 64.6 °F /  18.1 °C 30 in /  1014.8 hPa NNE 1 mph /  1.6 km/h 4 mph /  6.4 km/h 48 % 0 in /  0.0 mm
19:12 86.2 °F /  30.1 °C 64.2 °F /  17.9 °C 30 in /  1014.8 hPa NE 2 mph /  3.2 km/h 5 mph /  8.0 km/h 48 % 0 in /  0.0 mm
19:17 85.8 °F /  29.9 °C 64.4 °F /  18.0 °C 30 in /  1014.8 hPa NE 5 mph /  8.0 km/h 6 mph /  9.7 km/h 49 % 0 in /  0.0 mm
19:22 85.8 °F /  29.9 °C 64.4 °F /  18.0 °C 30 in /  1014.8 hPa NE 1 mph /  1.6 km/h 6 mph /  9.7 km/h 49 % 0 in /  0.0 mm
19:32 85.6 °F /  29.8 °C 64.2 °F /  17.9 °C 30 in /  1014.8 hPa NNE 1 mph /  1.6 km/h 6 mph /  9.7 km/h 49 % 0 in /  0.0 mm
19:37 85.6 °F /  29.8 °C 64.2 °F /  17.9 °C 30 in /  1014.8 hPa NE 3 mph /  4.8 km/h 5 mph /  8.0 km/h 49 % 0 in /  0.0 mm
19:42 85.5 °F /  29.7 °C 64.8 °F /  18.2 °C 30 in /  1014.8 hPa NE 1 mph /  1.6 km/h 5 mph /  8.0 km/h 50 % 0 in /  0.0 mm
19:47 85.5 °F /  29.7 °C 65.3 °F /  18.5 °C 30 in /  1014.8 hPa Calm   4 mph /  6.4 km/h 51 % 0 in /  0.0 mm
19:52 85.5 °F /  29.7 °C 65.3 °F /  18.5 °C 30 in /  1014.8 hPa Calm   4 mph /  6.4 km/h 51 % 0 in /  0.0 mm
20:02 84.7 °F /  29.3 °C 65.7 °F /  18.7 °C 30 in /  1014.8 hPa NE 1 mph /  1.6 km/h 3 mph /  4.8 km/h 53 % 0 in /  0.0 mm
20:07 84.4 °F /  29.1 °C 65.8 °F /  18.8 °C 30 in /  1014.8 hPa NNE 1 mph /  1.6 km/h 2 mph /  3.2 km/h 54 % 0 in /  0.0 mm
20:12 83.7 °F /  28.7 °C 65.8 °F /  18.8 °C 30 in /  1014.8 hPa NNE 5 mph /  8.0 km/h 5 mph /  8.0 km/h 55 % 0 in /  0.0 mm
20:17 83.1 °F /  28.4 °C 66.4 °F /  19.1 °C 30 in /  1015.1 hPa NNW 3 mph /  4.8 km/h 7 mph /  11.3 km/h 57 % 0 in /  0.0 mm
20:22 82.8 °F /  28.2 °C 66.9 °F /  19.4 °C 30 in /  1015.1 hPa NNE 2 mph /  3.2 km/h 7 mph /  11.3 km/h 59 % 0 in /  0.0 mm
20:32 81.7 °F /  27.6 °C 67.5 °F /  19.7 °C 30 in /  1015.1 hPa NE 2 mph /  3.2 km/h 7 mph /  11.3 km/h 62 % 0 in /  0.0 mm
20:42 81 °F /  27.2 °C 67.1 °F /  19.5 °C 30 in /  1015.5 hPa NNW 4 mph /  6.4 km/h 6 mph /  9.7 km/h 63 % 0 in /  0.0 mm
20:52 80.4 °F /  26.9 °C 67.1 °F /  19.5 °C 30 in /  1015.5 hPa NNE 3 mph /  4.8 km/h 7 mph /  11.3 km/h 64 % 0 in /  0.0 mm
20:57 80.1 °F /  26.7 °C 67.3 °F /  19.6 °C 30 in /  1015.5 hPa North 4 mph /  6.4 km/h 6 mph /  9.7 km/h 65 % 0 in /  0.0 mm
21:02 79.9 °F /  26.6 °C 67.5 °F /  19.7 °C 30 in /  1015.5 hPa North 1 mph /  1.6 km/h 6 mph /  9.7 km/h 66 % 0 in /  0.0 mm
21:12 79.2 °F /  26.2 °C 67.3 °F /  19.6 °C 30 in /  1015.5 hPa NNW 2 mph /  3.2 km/h 4 mph /  6.4 km/h 67 % 0 in /  0.0 mm
21:17 78.6 °F /  25.9 °C 67.1 °F /  19.5 °C 30 in /  1015.8 hPa Calm   4 mph /  6.4 km/h 68 % 0 in /  0.0 mm
21:22 78.4 °F /  25.8 °C 66.9 °F /  19.4 °C 30 in /  1015.8 hPa NW 2 mph /  3.2 km/h 4 mph /  6.4 km/h 68 % 0 in /  0.0 mm
21:32 78.1 °F /  25.6 °C 67.1 °F /  19.5 °C 30 in /  1015.8 hPa NW 1 mph /  1.6 km/h 3 mph /  4.8 km/h 69 % 0 in /  0.0 mm
21:42 77.7 °F /  25.4 °C 66.7 °F /  19.3 °C 30 in /  1016.1 hPa NW 1 mph /  1.6 km/h 3 mph /  4.8 km/h 69 % 0 in /  0.0 mm
21:47 77.5 °F /  25.3 °C 66.9 °F /  19.4 °C 30 in /  1016.1 hPa North 5 mph /  8.0 km/h 5 mph /  8.0 km/h 70 % 0 in /  0.0 mm
21:52 77.5 °F /  25.3 °C 66.9 °F /  19.4 °C 30 in /  1016.1 hPa North 5 mph /  8.0 km/h 5 mph /  8.0 km/h 70 % 0 in /  0.0 mm
22:02 77.4 °F /  25.2 °C 66.7 °F /  19.3 °C 30 in /  1016.1 hPa NNW 2 mph /  3.2 km/h 6 mph /  9.7 km/h 70 % 0 in /  0.0 mm
22:12 76.8 °F /  24.9 °C 66.7 °F /  19.3 °C 30 in /  1016.1 hPa NNE 1 mph /  1.6 km/h 6 mph /  9.7 km/h 71 % 0 in /  0.0 mm
22:22 76.5 °F /  24.7 °C 66.7 °F /  19.3 °C 30 in /  1016.1 hPa North 1 mph /  1.6 km/h 5 mph /  8.0 km/h 72 % 0 in /  0.0 mm
22:27 76.3 °F /  24.6 °C 66.9 °F /  19.4 °C 30 in /  1016.1 hPa North 3 mph /  4.8 km/h 7 mph /  11.3 km/h 73 % 0 in /  0.0 mm
22:32 76.3 °F /  24.6 °C 66.9 °F /  19.4 °C 30 in /  1016.1 hPa North 4 mph /  6.4 km/h 7 mph /  11.3 km/h 73 % 0 in /  0.0 mm
22:37 76.1 °F /  24.5 °C 66.7 °F /  19.3 °C 30 in /  1016.1 hPa North 3 mph /  4.8 km/h 7 mph /  11.3 km/h 73 % 0 in /  0.0 mm
22:42 75.9 °F /  24.4 °C 66.6 °F /  19.2 °C 30 in /  1016.1 hPa NNE 3 mph /  4.8 km/h 7 mph /  11.3 km/h 73 % 0 in /  0.0 mm
22:47 75.9 °F /  24.4 °C 66.6 °F /  19.2 °C 30 in /  1016.1 hPa NE 4 mph /  6.4 km/h 7 mph /  11.3 km/h 73 % 0 in /  0.0 mm
22:57 75.7 °F /  24.3 °C 66.9 °F /  19.4 °C 30 in /  1016.1 hPa Calm   7 mph /  11.3 km/h 74 % 0 in /  0.0 mm
23:02 75.6 °F /  24.2 °C 66.7 °F /  19.3 °C 30 in /  1016.1 hPa NNW 2 mph /  3.2 km/h 7 mph /  11.3 km/h 74 % 0 in /  0.0 mm
23:07 75.4 °F /  24.1 °C 66.6 °F /  19.2 °C 30 in /  1016.1 hPa NNW 3 mph /  4.8 km/h 6 mph /  9.7 km/h 74 % 0 in /  0.0 mm
23:12 75.2 °F /  24.0 °C 66.7 °F /  19.3 °C 30 in /  1016.1 hPa NNW 2 mph /  3.2 km/h 6 mph /  9.7 km/h 75 % 0 in /  0.0 mm
23:17 75 °F /  23.9 °C 66.6 °F /  19.2 °C 30 in /  1016.1 hPa NNW 3 mph /  4.8 km/h 6 mph /  9.7 km/h 75 % 0 in /  0.0 mm
23:22 74.8 °F /  23.8 °C 66.4 °F /  19.1 °C 30 in /  1016.1 hPa North 3 mph /  4.8 km/h 6 mph /  9.7 km/h 75 % 0 in /  0.0 mm
23:32 74.7 °F /  23.7 °C 66.6 °F /  19.2 °C 30 in /  1016.1 hPa North 2 mph /  3.2 km/h 6 mph /  9.7 km/h 76 % 0 in /  0.0 mm
23:37 74.5 °F /  23.6 °C 66.4 °F /  19.1 °C 30 in /  1016.5 hPa North 4 mph /  6.4 km/h 6 mph /  9.7 km/h 76 % 0 in /  0.0 mm
23:42 74.3 °F /  23.5 °C 66.2 °F /  19.0 °C 30 in /  1016.1 hPa North 3 mph /  4.8 km/h 6 mph /  9.7 km/h 76 % 0 in /  0.0 mm
23:47 74.5 °F /  23.6 °C 66.4 °F /  19.1 °C 30 in /  1016.5 hPa NNW 1 mph /  1.6 km/h 5 mph /  8.0 km/h 76 % 0 in /  0.0 mm
23:52 74.3 °F /  23.5 °C 66.2 °F /  19.0 °C 30 in /  1016.5 hPa North 4 mph /  6.4 km/h 5 mph /  8.0 km/h 76 % 0 in /  0.0 mm
Meteo18
Compliments of Weather Underground - 4 mb

Script developed by  Jim McMurry - jmcmurry@mwt.net Adapted for the template by  Wim van der Kuil - Leuven-Template.eu

You find our weather info also at:

European Weather Network

Weather Underground

Equipment we use:

Weather-station
Davis Vue

Weather-program
Meteohub

Weather-server
Raspberry PI 2 B+

Provider
1 and 1

Davis Vue

Meteohub

Raspberry PI 2 B+

1 and 1